createdAt,value
2022-09-24T00:02:05.711Z,6.92
2022-09-24T00:04:33.931Z,6.92
2022-09-24T00:07:02.125Z,6.91
2022-09-24T00:09:30.349Z,6.90
2022-09-24T00:11:58.589Z,6.89
2022-09-24T00:14:26.791Z,6.88
2022-09-24T00:16:54.988Z,6.89
2022-09-24T00:19:23.230Z,6.87
2022-09-24T00:21:51.506Z,6.88
2022-09-24T00:24:38.615Z,6.85
2022-09-24T00:27:07.027Z,6.83
2022-09-24T00:29:36.065Z,6.82
2022-09-24T00:32:05.260Z,6.79
2022-09-24T00:34:33.958Z,6.77
2022-09-24T00:37:02.530Z,6.75
2022-09-24T00:39:31.044Z,6.73
2022-09-24T00:41:59.351Z,6.71
2022-09-24T00:44:46.794Z,6.68
2022-09-24T00:47:20.871Z,6.64
2022-09-24T00:49:49.616Z,6.60
2022-09-24T00:52:19.449Z,6.55
2022-09-24T00:54:48.324Z,6.50
2022-09-24T00:57:16.995Z,6.44
2022-09-24T00:59:45.736Z,6.39
2022-09-24T01:02:14.552Z,6.33
2022-09-24T01:04:42.834Z,6.25
2022-09-24T01:07:12.103Z,6.19
2022-09-24T01:09:40.644Z,6.13
2022-09-24T01:12:15.911Z,6.07
2022-09-24T01:15:10.486Z,6.00
2022-09-24T01:17:58.667Z,5.93
2022-09-24T01:20:30.029Z,5.87
2022-09-24T01:23:07.880Z,5.81
2022-09-24T01:25:39.162Z,5.76
2022-09-24T01:28:13.597Z,5.71
2022-09-24T01:30:42.493Z,5.66
2022-09-24T01:33:14.703Z,5.63
2022-09-24T01:35:54.185Z,5.59
2022-09-24T01:38:27.504Z,5.56
2022-09-24T01:40:57.619Z,5.52
2022-09-24T01:43:27.515Z,5.48
2022-09-24T01:45:59.670Z,5.44
2022-09-24T01:48:28.505Z,5.42
2022-09-24T01:51:09.757Z,5.40
2022-09-24T01:54:04.502Z,5.39
2022-09-24T01:56:42.317Z,5.37
2022-09-24T01:59:30.574Z,5.34
2022-09-24T02:02:02.135Z,5.30
2022-09-24T02:04:31.833Z,5.28
2022-09-24T02:07:19.559Z,5.27
2022-09-24T02:09:47.879Z,5.26
2022-09-24T02:12:19.583Z,5.26
2022-09-24T02:14:51.868Z,5.26
2022-09-24T02:17:21.822Z,5.27
2022-09-24T02:19:50.485Z,5.28
2022-09-24T02:22:18.799Z,5.30
2022-09-24T02:24:51.565Z,5.33
2022-09-24T02:27:20.246Z,5.36
2022-09-24T02:29:49.129Z,5.40
2022-09-24T02:32:20.028Z,5.45
2022-09-24T02:34:50.487Z,5.50
2022-09-24T02:37:20.517Z,5.55
2022-09-24T02:39:48.730Z,5.59
2022-09-24T02:42:17.686Z,5.61
2022-09-24T02:44:47.523Z,5.63
2022-09-24T02:47:16.051Z,5.65
2022-09-24T02:49:44.246Z,5.67
2022-09-24T02:52:12.469Z,5.68
2022-09-24T02:54:41.338Z,5.68
2022-09-24T02:57:09.770Z,5.68
2022-09-24T02:59:37.952Z,5.68
2022-09-24T03:02:06.648Z,5.67
2022-09-24T03:04:35.145Z,5.66
2022-09-24T03:07:03.415Z,5.64
2022-09-24T03:09:31.737Z,5.60
2022-09-24T03:12:00.826Z,5.55
2022-09-24T03:14:29.170Z,5.49
2022-09-24T03:16:57.394Z,5.44
2022-09-24T03:19:25.619Z,5.40
2022-09-24T03:21:53.869Z,5.37
2022-09-24T03:24:22.119Z,5.35
2022-09-24T03:26:50.357Z,5.32
2022-09-24T03:29:38.503Z,5.28
2022-09-24T03:32:06.739Z,5.24
2022-09-24T03:34:35.026Z,5.21
2022-09-24T03:37:03.239Z,5.18
2022-09-24T03:39:31.455Z,5.14
2022-09-24T03:41:59.657Z,5.11
2022-09-24T03:44:28.891Z,5.07
2022-09-24T03:46:57.213Z,5.03
2022-09-24T03:49:26.380Z,5.00
2022-09-24T03:51:54.627Z,4.99
2022-09-24T03:54:22.865Z,4.97
2022-09-24T03:56:51.070Z,4.94
2022-09-24T03:59:19.302Z,4.90
2022-09-24T04:01:47.626Z,4.88
2022-09-24T04:04:17.182Z,4.84
2022-09-24T04:06:45.414Z,4.80
2022-09-24T04:09:13.703Z,4.80
2022-09-24T04:11:42.998Z,4.77
2022-09-24T04:14:11.313Z,4.74
2022-09-24T04:16:40.301Z,4.73
2022-09-24T04:19:08.711Z,4.74
2022-09-24T04:21:36.904Z,4.77
2022-09-24T04:24:05.687Z,4.82
2022-09-24T04:26:34.085Z,4.86
2022-09-24T04:29:02.401Z,4.92
2022-09-24T04:31:33.607Z,4.97
2022-09-24T04:34:02.320Z,4.99
2022-09-24T04:36:30.513Z,5.02
2022-09-24T04:38:59.485Z,5.04
2022-09-24T04:41:27.676Z,5.02
2022-09-24T04:43:57.231Z,4.99
2022-09-24T04:46:25.558Z,4.94
2022-09-24T04:48:54.543Z,4.92
2022-09-24T04:51:22.807Z,4.93
2022-09-24T04:53:51.161Z,4.91
2022-09-24T04:56:19.359Z,4.86
2022-09-24T04:58:50.310Z,4.84
2022-09-24T05:01:19.499Z,4.83
2022-09-24T05:03:47.770Z,4.83
2022-09-24T05:06:16.208Z,4.84
2022-09-24T05:08:44.434Z,4.85
2022-09-24T05:11:13.351Z,4.87
2022-09-24T05:13:41.632Z,4.88
2022-09-24T05:16:09.908Z,4.89
2022-09-24T05:18:38.114Z,4.91
2022-09-24T05:21:06.413Z,4.94
2022-09-24T05:23:34.625Z,4.99
2022-09-24T05:26:21.411Z,5.07
2022-09-24T05:28:49.596Z,5.17
2022-09-24T05:31:17.811Z,5.25
2022-09-24T05:33:46.478Z,5.34
2022-09-24T05:36:14.716Z,5.43
2022-09-24T05:38:42.912Z,5.53
2022-09-24T05:41:11.142Z,5.62
2022-09-24T05:43:41.335Z,5.73
2022-09-24T05:46:09.653Z,5.84
2022-09-24T05:48:38.025Z,5.94
2022-09-24T05:51:07.072Z,6.04
2022-09-24T05:53:35.341Z,6.14
2022-09-24T05:56:03.739Z,6.22
2022-09-24T05:58:32.314Z,6.33
2022-09-24T06:01:03.543Z,6.44
2022-09-24T06:03:32.043Z,6.54
2022-09-24T06:06:02.418Z,6.65
2022-09-24T06:08:31.340Z,6.78
2022-09-24T06:11:05.593Z,6.96
2022-09-24T06:13:36.657Z,7.25
2022-09-24T06:16:09.496Z,7.67
2022-09-24T06:18:40.249Z,8.09
2022-09-24T06:21:10.648Z,8.52
2022-09-24T06:23:39.405Z,8.79
2022-09-24T06:26:08.405Z,9.13
2022-09-24T06:28:37.769Z,9.45
2022-09-24T06:31:06.458Z,9.78
2022-09-24T06:33:34.886Z,10.13
2022-09-24T06:36:04.180Z,10.42
2022-09-24T06:38:33.110Z,10.68
2022-09-24T06:41:02.169Z,10.91
2022-09-24T06:43:31.065Z,11.10
2022-09-24T06:46:00.096Z,11.36
2022-09-24T06:48:31.358Z,11.70
2022-09-24T06:50:59.914Z,12.05
2022-09-24T06:53:28.419Z,12.32
2022-09-24T06:55:59.768Z,12.53
2022-09-24T06:58:27.999Z,12.50
2022-09-24T07:01:01.878Z,12.42
2022-09-24T07:03:31.426Z,12.25
2022-09-24T07:06:01.003Z,12.14
2022-09-24T07:08:29.240Z,12.08
2022-09-24T07:10:57.446Z,12.01
2022-09-24T07:13:25.839Z,11.96
2022-09-24T07:15:54.239Z,11.95
2022-09-24T07:18:22.533Z,12.35
2022-09-24T07:20:55.019Z,12.75
2022-09-24T07:23:23.995Z,13.10
2022-09-24T07:25:55.742Z,13.43
2022-09-24T07:28:24.061Z,13.81
2022-09-24T07:31:01.976Z,14.09
2022-09-24T07:33:31.682Z,14.39
2022-09-24T07:36:00.238Z,14.71
2022-09-24T07:38:28.481Z,15.09
2022-09-24T07:40:59.807Z,15.38
2022-09-24T07:43:29.413Z,15.63
2022-09-24T07:45:58.424Z,15.94
2022-09-24T07:48:26.709Z,16.27
2022-09-24T07:50:54.953Z,16.57
2022-09-24T07:53:24.474Z,16.87
2022-09-24T07:55:52.879Z,17.18
2022-09-24T07:58:22.032Z,17.49
2022-09-24T08:00:50.276Z,17.76
2022-09-24T08:03:18.618Z,17.88
2022-09-24T08:05:46.978Z,17.98
2022-09-24T08:08:15.448Z,18.14
2022-09-24T08:10:43.777Z,18.32
2022-09-24T08:13:12.417Z,18.45
2022-09-24T08:15:41.044Z,18.45
2022-09-24T08:18:09.886Z,18.60
2022-09-24T08:20:38.674Z,18.75
2022-09-24T08:23:10.229Z,18.89
2022-09-24T08:25:38.829Z,19.06
2022-09-24T08:28:08.039Z,19.26
2022-09-24T08:30:36.357Z,19.53
2022-09-24T08:33:07.469Z,19.82
2022-09-24T08:35:36.540Z,20.03
2022-09-24T08:38:04.835Z,20.06
2022-09-24T08:40:36.831Z,20.13
2022-09-24T08:43:11.225Z,20.21
2022-09-24T08:46:07.382Z,20.31
2022-09-24T08:48:39.679Z,20.46
2022-09-24T08:51:12.710Z,20.54
2022-09-24T08:53:47.307Z,20.64
2022-09-24T08:56:19.352Z,20.59
2022-09-24T08:58:47.523Z,20.55
2022-09-24T09:01:30.802Z,20.52
2022-09-24T09:04:05.331Z,20.41
2022-09-24T09:06:54.070Z,20.41
2022-09-24T09:09:45.590Z,20.32
2022-09-24T09:12:23.973Z,20.19
2022-09-24T09:15:15.542Z,19.91
2022-09-24T09:17:46.887Z,19.51
2022-09-24T09:20:18.174Z,19.27
2022-09-24T09:22:48.232Z,19.13
2022-09-24T09:25:20.007Z,19.05
2022-09-24T09:28:03.490Z,18.91
2022-09-24T09:30:38.422Z,18.69
2022-09-24T09:33:10.425Z,18.55
2022-09-24T09:35:39.222Z,18.58
2022-09-24T09:38:29.905Z,18.59
2022-09-24T09:41:15.801Z,18.34
2022-09-24T09:43:44.277Z,18.14
2022-09-24T09:46:12.629Z,18.21
2022-09-24T09:48:44.538Z,18.12
2022-09-24T09:51:21.387Z,17.89
2022-09-24T09:53:55.076Z,17.61
2022-09-24T09:56:25.127Z,17.34
2022-09-24T09:59:01.814Z,17.02
2022-09-24T10:01:34.807Z,16.76
2022-09-24T10:04:05.167Z,16.67
2022-09-24T10:06:35.695Z,16.64
2022-09-24T10:09:16.465Z,16.74
2022-09-24T10:11:44.961Z,16.71
2022-09-24T10:14:15.257Z,16.75
2022-09-24T10:16:47.626Z,16.75
2022-09-24T10:19:24.010Z,16.78
2022-09-24T10:22:00.130Z,16.78
2022-09-24T10:24:30.334Z,16.74
2022-09-24T10:27:01.486Z,16.72
2022-09-24T10:29:53.506Z,16.75
2022-09-24T10:32:28.135Z,16.72
2022-09-24T10:35:07.321Z,16.58
2022-09-24T10:37:53.262Z,16.43
2022-09-24T10:40:25.889Z,16.29
2022-09-24T10:42:56.196Z,16.19
2022-09-24T10:45:28.660Z,16.18
2022-09-24T10:48:16.995Z,16.10
2022-09-24T10:50:45.206Z,15.97
2022-09-24T10:53:13.647Z,15.94
2022-09-24T10:55:41.837Z,16.08
2022-09-24T10:58:10.041Z,16.14
2022-09-24T11:00:40.256Z,16.06
2022-09-24T11:03:20.808Z,16.07
2022-09-24T11:05:53.284Z,16.10
2022-09-24T11:08:21.779Z,16.26
2022-09-24T11:10:52.818Z,16.76
2022-09-24T11:13:40.850Z,17.11
2022-09-24T11:16:21.426Z,17.47
2022-09-24T11:19:16.032Z,17.92
2022-09-24T11:22:03.248Z,18.34
2022-09-24T11:24:40.237Z,18.52
2022-09-24T11:27:20.861Z,18.29
2022-09-24T11:30:08.091Z,17.73
2022-09-24T11:32:48.697Z,17.39
2022-09-24T11:35:23.042Z,17.08
2022-09-24T11:37:51.310Z,16.75
2022-09-24T11:40:30.076Z,16.67
2022-09-24T11:43:07.079Z,16.69
2022-09-24T11:45:41.913Z,16.87
2022-09-24T11:48:16.360Z,17.18
2022-09-24T11:51:03.746Z,17.12
2022-09-24T11:53:31.976Z,16.78
2022-09-24T11:56:07.178Z,16.58
2022-09-24T11:58:42.724Z,16.52
2022-09-24T12:01:20.977Z,16.46
2022-09-24T12:03:53.314Z,16.47
2022-09-24T12:06:24.798Z,16.66
2022-09-24T12:08:53.062Z,16.83
2022-09-24T12:11:22.388Z,17.07
2022-09-24T12:13:52.782Z,17.10
2022-09-24T12:16:27.192Z,16.98
2022-09-24T12:19:07.747Z,16.73
2022-09-24T12:21:43.496Z,16.58
2022-09-24T12:24:17.014Z,16.64
2022-09-24T12:26:45.899Z,16.47
2022-09-24T12:29:32.777Z,16.50
2022-09-24T12:32:23.102Z,16.69
2022-09-24T12:35:10.319Z,16.92
2022-09-24T12:37:41.344Z,16.92
2022-09-24T12:40:22.154Z,16.95
2022-09-24T12:42:52.570Z,16.95
2022-09-24T12:45:22.731Z,16.97
2022-09-24T12:47:53.502Z,16.96
2022-09-24T12:50:25.083Z,17.07
2022-09-24T12:52:55.083Z,17.03
2022-09-24T12:55:25.027Z,16.77
2022-09-24T12:57:56.830Z,16.50
2022-09-24T13:00:36.136Z,16.34
2022-09-24T13:03:06.522Z,16.17
2022-09-24T13:05:47.604Z,16.10
2022-09-24T13:08:17.200Z,15.99
2022-09-24T13:11:00.861Z,15.82
2022-09-24T13:13:32.003Z,15.68
2022-09-24T13:16:02.176Z,15.56
2022-09-24T13:18:32.288Z,15.48
2022-09-24T13:21:02.379Z,15.43
2022-09-24T13:23:35.437Z,15.34
2022-09-24T13:26:13.252Z,15.35
2022-09-24T13:28:48.323Z,15.33
2022-09-24T13:31:27.884Z,15.47
2022-09-24T13:34:14.228Z,15.69
2022-09-24T13:36:48.585Z,15.85
2022-09-24T13:39:35.674Z,15.83
2022-09-24T13:42:22.719Z,15.77
2022-09-24T13:45:06.184Z,15.66
2022-09-24T13:47:55.988Z,15.52
2022-09-24T13:50:30.147Z,15.34
2022-09-24T13:53:00.209Z,15.23
2022-09-24T13:55:32.013Z,15.13
2022-09-24T13:58:00.691Z,14.97
2022-09-24T14:00:29.763Z,14.83
2022-09-24T14:02:58.766Z,14.72
2022-09-24T14:05:28.169Z,14.67
2022-09-24T14:07:58.385Z,14.68
2022-09-24T14:10:26.680Z,14.69
2022-09-24T14:13:01.880Z,14.68
2022-09-24T14:15:30.103Z,14.71
2022-09-24T14:17:59.295Z,14.75
2022-09-24T14:20:30.289Z,14.73
2022-09-24T14:22:58.731Z,14.68
2022-09-24T14:25:26.988Z,14.69
2022-09-24T14:27:56.091Z,14.70
2022-09-24T14:30:25.493Z,14.68
2022-09-24T14:33:03.571Z,14.66
2022-09-24T14:35:33.508Z,14.70
2022-09-24T14:38:04.760Z,14.73
2022-09-24T14:40:45.486Z,14.71
2022-09-24T14:43:16.850Z,14.59
2022-09-24T14:45:47.326Z,14.44
2022-09-24T14:48:29.308Z,14.38
2022-09-24T14:50:57.583Z,14.36
2022-09-24T14:53:28.631Z,14.34
2022-09-24T14:55:57.592Z,14.37
2022-09-24T14:58:28.830Z,14.33
2022-09-24T15:00:59.389Z,14.22
2022-09-24T15:03:32.644Z,14.19
2022-09-24T15:06:13.767Z,14.16
2022-09-24T15:12:35.522Z,14.00
2022-09-24T15:15:03.660Z,13.91
2022-09-24T15:17:33.114Z,13.83
2022-09-24T15:20:02.250Z,13.78
2022-09-24T15:22:30.597Z,13.73
2022-09-24T15:25:01.861Z,13.69
2022-09-24T15:27:38.157Z,13.64
2022-09-24T15:30:08.249Z,13.58
2022-09-24T15:32:37.394Z,13.53
2022-09-24T15:35:09.750Z,13.48
2022-09-24T15:37:39.387Z,13.44
2022-09-24T15:40:07.946Z,13.35
2022-09-24T15:42:36.136Z,13.28
2022-09-24T15:45:07.661Z,13.24
2022-09-24T15:47:35.800Z,13.20
2022-09-24T15:50:04.006Z,13.09
2022-09-24T15:52:33.154Z,13.04
2022-09-24T15:55:03.005Z,13.01
2022-09-24T15:57:31.102Z,12.94
2022-09-24T15:59:59.344Z,12.85
2022-09-24T16:02:32.003Z,12.81
2022-09-24T16:05:03.551Z,12.76
2022-09-24T16:07:32.441Z,12.67
2022-09-24T16:10:00.618Z,12.59
2022-09-24T16:12:28.868Z,12.53
2022-09-24T16:14:59.401Z,12.48
2022-09-24T16:17:29.640Z,12.43
2022-09-24T16:19:57.821Z,12.39
2022-09-24T16:22:25.974Z,12.33
2022-09-24T16:24:54.699Z,12.30
2022-09-24T16:27:22.825Z,12.25
2022-09-24T16:29:50.897Z,12.21
2022-09-24T16:32:19.002Z,12.11
2022-09-24T16:34:47.130Z,12.08
2022-09-24T16:37:16.956Z,12.04
2022-09-24T16:39:45.161Z,11.97
2022-09-24T16:42:13.276Z,11.93
2022-09-24T16:44:41.461Z,11.86
2022-09-24T16:47:09.798Z,11.80
2022-09-24T16:49:37.899Z,11.76
2022-09-24T16:52:06.369Z,11.74
2022-09-24T16:54:34.613Z,11.73
2022-09-24T16:57:03.588Z,11.71
2022-09-24T16:59:32.096Z,11.69
2022-09-24T17:02:00.322Z,11.67
2022-09-24T17:04:28.578Z,11.65
2022-09-24T17:06:57.352Z,11.62
2022-09-24T17:09:44.397Z,11.60
2022-09-24T17:12:12.630Z,11.59
2022-09-24T17:14:40.769Z,11.55
2022-09-24T17:17:08.903Z,11.50
2022-09-24T17:19:37.007Z,11.46
2022-09-24T17:22:05.156Z,11.42
2022-09-24T17:24:36.047Z,11.36
2022-09-24T17:27:04.312Z,11.31
2022-09-24T17:29:32.445Z,11.28
2022-09-24T17:32:00.739Z,11.27
2022-09-24T17:34:29.181Z,11.23
2022-09-24T17:36:59.850Z,11.18
2022-09-24T17:39:28.282Z,11.16
2022-09-24T17:41:56.646Z,11.15
2022-09-24T17:44:24.772Z,11.11
2022-09-24T17:46:53.003Z,11.05
2022-09-24T17:49:21.238Z,11.04
2022-09-24T17:51:49.540Z,11.06
2022-09-24T17:54:23.490Z,11.05
2022-09-24T17:56:51.713Z,11.05
2022-09-24T17:59:24.174Z,11.04
2022-09-24T18:01:54.650Z,11.06
2022-09-24T18:04:25.851Z,11.04
2022-09-24T18:06:54.121Z,11.04
2022-09-24T18:09:22.256Z,11.03
2022-09-24T18:11:51.658Z,11.04
2022-09-24T18:14:21.433Z,11.05
2022-09-24T18:16:49.735Z,11.07
2022-09-24T18:19:18.398Z,11.11
2022-09-24T18:21:49.365Z,11.12
2022-09-24T18:24:17.649Z,11.11
2022-09-24T18:26:49.523Z,11.09
2022-09-24T18:29:20.441Z,11.06
2022-09-24T18:31:51.612Z,11.00
2022-09-24T18:34:20.014Z,10.92
2022-09-24T18:36:48.219Z,10.87
2022-09-24T18:39:23.850Z,10.82
2022-09-24T18:41:53.367Z,10.77
2022-09-24T18:44:22.164Z,10.74
2022-09-24T18:46:50.373Z,10.71
2022-09-24T18:49:19.637Z,10.70
2022-09-24T18:51:49.439Z,10.68
2022-09-24T18:54:19.238Z,10.64
2022-09-24T18:56:47.495Z,10.62
2022-09-24T18:59:18.402Z,10.58
2022-09-24T19:01:48.079Z,10.53
2022-09-24T19:04:16.952Z,10.48
2022-09-24T19:06:45.977Z,10.44
2022-09-24T19:09:14.944Z,10.41
2022-09-24T19:11:43.297Z,10.37
2022-09-24T19:14:18.151Z,10.33
2022-09-24T19:16:47.286Z,10.27
2022-09-24T19:19:16.462Z,10.25
2022-09-24T19:21:45.162Z,10.22
2022-09-24T19:24:13.391Z,10.20
2022-09-24T19:26:41.662Z,10.16
2022-09-24T19:29:09.874Z,10.15
2022-09-24T19:31:40.081Z,10.11
2022-09-24T19:34:10.463Z,10.08
2022-09-24T19:36:44.244Z,10.04
2022-09-24T19:39:15.103Z,10.02
2022-09-24T19:41:43.646Z,9.98
2022-09-24T19:44:12.314Z,9.91
2022-09-24T19:46:41.248Z,9.87
2022-09-24T19:49:09.609Z,9.83
2022-09-24T19:51:38.021Z,9.76
2022-09-24T19:54:07.559Z,9.71
2022-09-24T19:56:36.796Z,9.67
2022-09-24T19:59:05.690Z,9.62
2022-09-24T20:01:34.090Z,9.60
2022-09-24T20:04:04.214Z,9.55
2022-09-24T20:06:34.068Z,9.53
2022-09-24T20:09:02.458Z,9.53
2022-09-24T20:11:32.964Z,9.51
2022-09-24T20:14:01.746Z,9.50
2022-09-24T20:16:33.070Z,9.46
2022-09-24T20:19:02.172Z,9.42
2022-09-24T20:21:32.651Z,9.35
2022-09-24T20:24:01.462Z,9.28
2022-09-24T20:26:48.125Z,9.22
2022-09-24T20:29:16.365Z,9.21
2022-09-24T20:35:12.948Z,9.16
2022-09-24T20:37:41.058Z,9.12
2022-09-24T20:40:09.941Z,9.12
2022-09-24T20:42:38.798Z,9.12
2022-09-24T20:45:07.402Z,9.09
2022-09-24T20:47:35.669Z,9.04
2022-09-24T20:50:05.073Z,8.99
2022-09-24T20:52:33.759Z,8.96
2022-09-24T20:55:01.953Z,8.94
2022-09-24T20:57:30.377Z,8.91
2022-09-24T20:59:58.521Z,8.89
2022-09-24T21:02:26.735Z,8.87
2022-09-24T21:04:54.906Z,8.83
2022-09-24T21:07:23.033Z,8.77
2022-09-24T21:09:51.373Z,8.71
2022-09-24T21:12:19.493Z,8.67
2022-09-24T21:14:47.900Z,8.64
2022-09-24T21:17:15.989Z,8.64
2022-09-24T21:19:44.147Z,8.65
2022-09-24T21:22:13.687Z,8.64
2022-09-24T21:24:41.882Z,8.64
2022-09-24T21:27:10.004Z,8.64
2022-09-24T21:29:38.087Z,8.65
2022-09-24T21:32:06.203Z,8.61
2022-09-24T21:34:35.562Z,8.58
2022-09-24T21:37:04.155Z,8.54
2022-09-24T21:39:32.276Z,8.52
2022-09-24T21:42:00.488Z,8.48
2022-09-24T21:44:32.028Z,8.46
2022-09-24T21:47:31.994Z,8.43
2022-09-24T21:50:00.144Z,8.39
2022-09-24T21:52:31.119Z,8.39
2022-09-24T21:54:59.512Z,8.37
2022-09-24T21:57:27.629Z,8.35
2022-09-24T22:00:03.495Z,8.31
2022-09-24T22:02:33.630Z,8.29
2022-09-24T22:05:01.804Z,8.27
2022-09-24T22:07:31.084Z,8.24
2022-09-24T22:09:59.187Z,8.20
2022-09-24T22:12:27.990Z,8.16
2022-09-24T22:14:56.109Z,8.13
2022-09-24T22:17:24.243Z,8.12
2022-09-24T22:19:52.405Z,8.08
2022-09-24T22:22:20.991Z,8.07
2022-09-24T22:24:49.135Z,8.07
2022-09-24T22:27:17.401Z,8.06
2022-09-24T22:29:45.869Z,8.06
2022-09-24T22:32:13.974Z,8.05
2022-09-24T22:35:00.724Z,8.05
2022-09-24T22:37:28.862Z,8.03
2022-09-24T22:39:56.963Z,8.00
2022-09-24T22:42:25.114Z,7.99
2022-09-24T22:44:53.249Z,7.99
2022-09-24T22:47:24.708Z,8.00
2022-09-24T22:49:52.851Z,8.03
2022-09-24T22:52:20.982Z,8.05
2022-09-24T22:54:49.095Z,8.05
2022-09-24T22:57:17.244Z,8.06
2022-09-24T22:59:45.348Z,8.04
2022-09-24T23:02:13.609Z,8.03
2022-09-24T23:04:41.893Z,8.02
2022-09-24T23:07:10.698Z,8.01
2022-09-24T23:09:38.840Z,7.99
2022-09-24T23:12:06.958Z,7.97
2022-09-24T23:14:35.327Z,7.95
2022-09-24T23:17:03.491Z,7.92
2022-09-24T23:22:38.035Z,7.88
2022-09-24T23:25:06.500Z,7.90
2022-09-24T23:27:34.651Z,7.92
2022-09-24T23:30:02.822Z,7.91
2022-09-24T23:32:32.250Z,7.91
2022-09-24T23:35:02.054Z,7.92
2022-09-24T23:37:30.528Z,7.93
2022-09-24T23:39:58.709Z,7.94
2022-09-24T23:42:27.304Z,7.96
2022-09-24T23:44:55.461Z,7.97
2022-09-24T23:47:39.282Z,7.98
2022-09-24T23:50:07.529Z,7.99
2022-09-24T23:52:35.661Z,8.02
2022-09-24T23:55:03.851Z,8.04
2022-09-24T23:57:32.016Z,8.05
